Time;durP1;ratioP1;P1;durP2;ratioP2;P2;SDS_P1;SDS_P2;PMS_P1;PMS_P2;Temp;Humidity;BMP_temperature;BMP_pressure;BME280_temperature;BME280_humidity;BME280_pressure;Samples;Min_cycle;Max_cycle;Signal;HPM_P1;HPM_P2
2022/10/05 00:00:15;;;;;;;;;10.00;7.33;;;;;16.86;68.78;101332.53;5079939;27;45500;-59
2022/10/05 00:02:41;;;;;;;;;7.00;6.00;;;;;16.83;69.15;101324.69;5090049;27;45540;-61
2022/10/05 00:05:20;;;;;;;;;7.33;7.00;;;;;16.79;69.07;101321.34;5092925;27;45246;-60
2022/10/05 00:07:45;;;;;;;;;9.33;9.33;;;;;16.66;69.29;101308.84;5092124;27;46069;-60
2022/10/05 00:10:17;;;;;;;;;10.33;10.33;;;;;16.68;69.61;101326.63;5074637;27;45673;-63
2022/10/05 00:12:45;;;;;;;;;11.67;11.67;;;;;16.72;69.51;101329.97;5091405;27;45440;-59
2022/10/05 00:15:12;;;;;;;;;13.33;13.33;;;;;16.67;69.89;101321.34;5077549;27;45497;-59
2022/10/05 00:17:40;;;;;;;;;11.00;11.00;;;;;16.60;70.46;101314.66;5073826;27;46346;-57
2022/10/05 00:20:25;;;;;;;;;13.00;12.00;;;;;16.55;70.65;101315.00;5077471;27;45521;-57
2022/10/05 00:22:56;;;;;;;;;12.67;11.33;;;;;16.57;71.06;101315.75;5077631;27;45330;-57
2022/10/05 00:25:22;;;;;;;;;14.00;14.00;;;;;16.38;70.86;101283.06;5092444;27;45419;-63
2022/10/05 00:27:54;;;;;;;;;14.67;13.67;;;;;16.53;71.43;101309.69;5075470;27;45403;-59
2022/10/05 00:30:21;;;;;;;;;11.00;11.00;;;;;16.51;71.42;101311.63;5069661;27;45333;-60
2022/10/05 00:32:46;;;;;;;;;13.33;11.33;;;;;16.47;71.58;101310.16;5077898;27;45420;-61
2022/10/05 00:35:13;;;;;;;;;12.00;12.00;;;;;16.47;71.81;101310.16;5077758;27;45283;-57
2022/10/05 00:37:42;;;;;;;;;12.33;11.00;;;;;16.45;71.90;101301.34;5077541;27;45378;-59
2022/10/05 00:40:42;;;;;;;;;18.67;16.00;;;;;16.48;71.77;101305.63;5077048;27;45322;-59
2022/10/05 00:43:34;;;;;;;;;14.00;13.00;;;;;16.48;71.81;101300.25;5076399;28;45146;-61
2022/10/05 00:46:22;;;;;;;;;9.67;9.67;;;;;16.44;72.30;101299.63;5064801;27;46055;-57
2022/10/05 00:49:02;;;;;;;;;17.67;12.67;;;;;16.41;72.16;101299.84;5089023;27;46752;-56
2022/10/05 00:51:30;;;;;;;;;19.00;15.33;;;;;16.32;72.66;101284.38;5085934;27;45475;-59
2022/10/05 00:54:01;;;;;;;;;14.33;12.00;;;;;16.38;72.45;101301.84;5104163;27;45520;-60
2022/10/05 00:56:48;;;;;;;;;15.00;15.00;;;;;16.37;72.51;101302.81;5082343;27;46919;-57
2022/10/05 00:59:24;;;;;;;;;14.00;13.67;;;;;16.32;72.40;101296.94;5071535;27;46109;-61
2022/10/05 01:02:01;;;;;;;;;21.00;18.33;;;;;16.26;72.50;101291.97;5105534;27;46070;-56
2022/10/05 01:04:43;;;;;;;;;18.00;16.00;;;;;16.27;72.76;101299.06;5090787;27;45508;-58
2022/10/05 01:07:23;;;;;;;;;15.00;11.67;;;;;16.29;72.50;101297.16;5091624;27;45412;-58
2022/10/05 01:09:54;;;;;;;;;15.67;14.33;;;;;16.29;72.38;101300.69;5082017;27;45277;-59
2022/10/05 01:12:31;;;;;;;;;13.33;12.33;;;;;16.29;72.67;101306.06;5075510;27;45310;-58
2022/10/05 01:15:16;;;;;;;;;16.67;15.67;;;;;16.28;72.51;101298.13;5074344;27;45499;-57
2022/10/05 01:18:18;;;;;;;;;15.33;15.33;;;;;16.26;72.56;101298.19;5084278;27;45563;-59
2022/10/05 01:20:56;;;;;;;;;14.00;13.00;;;;;16.26;72.55;101295.50;5092553;27;45255;-61
2022/10/05 01:23:43;;;;;;;;;16.33;10.00;;;;;16.22;72.32;101299.38;5087889;27;45492;-60
2022/10/05 01:26:29;;;;;;;;;13.00;12.00;;;;;16.18;72.29;101300.56;5078757;27;45323;-58
2022/10/05 01:29:03;;;;;;;;;13.33;12.00;;;;;16.15;72.17;101298.09;5080049;27;45612;-60
2022/10/05 01:31:46;;;;;;;;;11.00;11.00;;;;;16.14;72.34;101290.97;5075621;27;46234;-60
2022/10/05 01:34:37;;;;;;;;;11.00;11.00;;;;;16.16;72.04;101302.50;5095857;27;45228;-59
2022/10/05 01:37:25;;;;;;;;;16.00;12.67;;;;;16.18;71.93;101293.38;5088602;27;47286;-57
2022/10/05 01:40:18;;;;;;;;;10.00;10.00;;;;;16.21;72.17;101286.94;5081034;27;45532;-58
2022/10/05 01:43:07;;;;;;;;;8.33;8.33;;;;;16.21;71.95;101270.81;5094239;27;45362;-60
2022/10/05 01:45:41;;;;;;;;;12.33;11.33;;;;;16.21;71.79;101274.38;5080718;27;45333;-58
2022/10/05 01:48:26;;;;;;;;;7.67;7.00;;;;;16.19;71.97;101273.63;5084805;27;45210;-61
2022/10/05 01:51:04;;;;;;;;;12.67;12.67;;;;;16.21;71.29;101274.38;5090532;27;45685;-58
2022/10/05 01:53:37;;;;;;;;;12.67;12.67;;;;;16.22;71.24;101272.53;5077240;27;46104;-63
2022/10/05 01:56:17;;;;;;;;;11.00;11.00;;;;;16.22;71.10;101272.53;5083322;27;45531;-61
2022/10/05 01:59:15;;;;;;;;;12.00;9.00;;;;;16.22;71.21;101262.66;5089403;27;45493;-61
2022/10/05 02:01:54;;;;;;;;;11.00;11.00;;;;;16.23;70.95;101272.44;5094454;27;45234;-61
2022/10/05 02:04:28;;;;;;;;;11.00;9.67;;;;;16.20;71.04;101261.06;5087066;27;47016;-57
2022/10/05 02:06:53;;;;;;;;;11.33;10.67;;;;;16.20;70.96;101261.06;5087271;27;45518;-57
2022/10/05 02:09:26;;;;;;;;;9.00;9.00;;;;;16.22;70.77;101257.28;5078020;27;45500;-58
2022/10/05 02:11:59;;;;;;;;;7.33;6.00;;;;;16.23;70.75;101258.16;5083948;27;45387;-56
2022/10/05 02:14:40;;;;;;;;;10.00;9.00;;;;;16.20;70.83;101253.00;5071372;28;46112;-57
2022/10/05 02:17:16;;;;;;;;;6.00;6.00;;;;;16.23;70.71;101258.16;5089560;27;45340;-59
2022/10/05 02:19:45;;;;;;;;;9.33;8.00;;;;;16.26;70.60;101259.75;5089647;27;45599;-56
2022/10/05 02:22:21;;;;;;;;;5.67;5.67;;;;;16.25;70.47;101250.84;5074270;27;45972;-60
2022/10/05 02:25:00;;;;;;;;;9.67;8.00;;;;;16.26;70.14;101249.88;5086625;27;45659;-60
2022/10/05 02:28:09;;;;;;;;;6.33;6.00;;;;;16.22;69.97;101238.50;5066914;27;45475;-56
2022/10/05 02:30:42;;;;;;;;;5.00;5.00;;;;;16.27;69.64;101235.50;5089673;27;45277;-57
2022/10/05 02:33:14;;;;;;;;;4.67;4.67;;;;;16.29;69.58;101236.28;5089875;27;45551;-57
2022/10/05 02:35:40;;;;;;;;;9.33;7.33;;;;;16.21;69.38;101212.63;5070813;27;46975;-56
2022/10/05 02:38:27;;;;;;;;;6.33;6.00;;;;;16.30;69.17;101221.03;5087549;27;47586;-56
2022/10/05 02:41:01;;;;;;;;;5.00;5.00;;;;;16.30;69.37;101227.25;5097389;27;45362;-57
2022/10/05 02:43:38;;;;;;;;;7.33;4.33;;;;;16.28;69.26;101215.78;5095946;27;45365;-59
2022/10/05 02:46:20;;;;;;;;;6.67;5.67;;;;;16.27;69.15;101215.84;5090331;27;45323;-58
2022/10/05 02:49:03;;;;;;;;;3.67;3.67;;;;;16.25;69.20;101215.97;5105109;27;45526;-61
2022/10/05 02:51:44;;;;;;;;;5.67;4.00;;;;;16.19;69.13;101211.03;5079783;27;45533;-61
2022/10/05 02:54:35;;;;;;;;;5.00;5.00;;;;;16.22;68.97;101205.44;5078913;27;45499;-55
2022/10/05 02:57:07;;;;;;;;;5.67;4.33;;;;;16.23;68.85;101207.16;5078707;27;46406;-62
2022/10/05 02:59:41;;;;;;;;;4.00;4.00;;;;;16.21;68.96;101209.09;5071583;27;45533;-63
2022/10/05 03:02:12;;;;;;;;;7.00;5.00;;;;;16.20;68.63;101210.06;5077773;28;45177;-62
2022/10/05 03:04:55;;;;;;;;;5.00;5.00;;;;;16.19;69.10;101208.34;5070476;28;45409;-61
2022/10/05 03:07:32;;;;;;;;;3.33;3.33;;;;;16.17;69.02;101211.16;5078326;28;46171;-58
2022/10/05 03:10:10;;;;;;;;;5.00;5.00;;;;;16.16;68.95;101213.94;5093182;27;45445;-59
2022/10/05 03:12:52;;;;;;;;;7.67;3.33;;;;;16.10;68.95;101204.47;5078045;27;45258;-60
2022/10/05 03:15:45;;;;;;;;;4.00;4.00;;;;;16.10;69.11;101211.66;5078850;27;45500;-58
2022/10/05 03:18:26;;;;;;;;;4.00;4.00;;;;;16.07;69.19;101214.56;5076850;27;45455;-57
2022/10/05 03:21:12;;;;;;;;;5.00;3.67;;;;;16.03;69.36;101207.69;5079946;27;45376;-55
2022/10/05 03:23:52;;;;;;;;;6.00;5.00;;;;;16.00;69.53;101202.53;5096080;27;45223;-56
2022/10/05 03:26:32;;;;;;;;;6.33;4.67;;;;;15.95;69.34;101196.63;5089861;27;45575;-57
2022/10/05 03:29:34;;;;;;;;;5.00;4.67;;;;;15.77;69.43;101183.53;5072629;28;45374;-57
2022/10/05 03:32:25;;;;;;;;;6.67;6.00;;;;;15.81;69.74;101192.22;5035985;28;45473;-62
2022/10/05 03:34:59;;;;;;;;;4.00;4.00;;;;;15.79;69.68;101195.00;5042486;28;45514;-58
2022/10/05 03:37:46;;;;;;;;;6.33;5.00;;;;;15.77;69.67;101194.25;5031088;28;46172;-58
2022/10/05 03:40:29;;;;;;;;;4.33;4.00;;;;;15.74;69.71;101191.75;5028639;28;45496;-56
2022/10/05 03:43:23;;;;;;;;;5.67;5.67;;;;;15.69;69.84;101190.38;5046658;28;45394;-55
2022/10/05 03:46:12;;;;;;;;;4.33;4.33;;;;;15.65;69.58;101189.72;5039041;28;46560;-60
2022/10/05 03:48:40;;;;;;;;;5.00;4.00;;;;;15.62;69.98;101193.47;5045196;28;45573;-60
2022/10/05 03:51:14;;;;;;;;;5.67;5.00;;;;;15.57;70.10;101194.69;5049581;28;46413;-57
2022/10/05 03:53:57;;;;;;;;;4.67;4.67;;;;;15.50;70.46;101186.22;5059835;27;45375;-56
2022/10/05 03:56:33;;;;;;;;;5.33;5.33;;;;;15.46;70.42;101175.78;5036574;28;45384;-61
2022/10/05 03:59:19;;;;;;;;;4.00;4.00;;;;;15.44;70.58;101183.94;5030801;28;45633;-61
2022/10/05 04:01:50;;;;;;;;;4.67;4.67;;;;;15.40;70.91;101189.63;5046977;28;46431;-57
2022/10/05 04:04:27;;;;;;;;;3.67;3.67;;;;;15.34;71.19;101190.88;5043098;28;45403;-60
2022/10/05 04:06:56;;;;;;;;;4.67;4.67;;;;;15.32;70.74;101190.97;5049734;28;45373;-57
2022/10/05 04:09:29;;;;;;;;;6.33;5.67;;;;;15.31;70.94;101199.97;5050219;28;45560;-56
2022/10/05 04:12:01;;;;;;;;;7.33;5.00;;;;;15.26;71.12;101199.44;5039273;28;47463;-58
2022/10/05 04:14:36;;;;;;;;;4.33;4.33;;;;;15.23;71.38;101196.06;5049688;28;45393;-55
2022/10/05 04:17:05;;;;;;;;;6.00;4.00;;;;;15.23;71.68;101191.56;5033870;28;45525;-63
2022/10/05 04:19:48;;;;;;;;;3.33;3.00;;;;;15.21;71.32;101196.19;5031198;28;45571;-58
2022/10/05 04:22:24;;;;;;;;;4.33;3.67;;;;;15.21;71.32;101195.31;5041128;28;46142;-60
2022/10/05 04:25:14;;;;;;;;;5.00;5.00;;;;;15.18;71.31;101184.81;5046495;28;45381;-62
2022/10/05 04:27:45;;;;;;;;;4.00;4.00;;;;;15.18;71.10;101183.00;5031948;28;45331;-59
2022/10/05 04:30:15;;;;;;;;;4.00;4.00;;;;;15.15;70.94;101185.88;5030830;28;45533;-58
2022/10/05 04:32:49;;;;;;;;;6.67;5.00;;;;;15.11;71.59;101179.00;5031801;28;46236;-57
2022/10/05 04:35:17;;;;;;;;;5.33;3.67;;;;;15.05;71.44;101188.28;5032679;28;45284;-59
2022/10/05 04:37:58;;;;;;;;;4.67;4.67;;;;;15.00;71.68;101182.38;5028622;28;45282;-59
2022/10/05 04:40:38;;;;;;;;;6.33;6.33;;;;;14.96;72.26;101182.66;5031718;28;45429;-60
2022/10/05 04:43:14;;;;;;;;;6.33;6.33;;;;;14.91;72.29;101177.63;5026193;28;45352;-63
2022/10/05 04:46:04;;;;;;;;;5.67;4.00;;;;;14.87;72.39;101178.78;5017435;28;45422;-59
2022/10/05 04:48:45;;;;;;;;;8.00;6.00;;;;;14.83;72.25;101181.72;5018721;28;45331;-58
2022/10/05 04:51:53;;;;;;;;;10.67;9.00;;;;;14.77;72.54;101177.66;5033595;28;45540;-60
2022/10/05 04:54:41;;;;;;;;;5.33;5.33;;;;;14.70;72.66;101170.94;5010800;28;46909;-58
2022/10/05 04:57:15;;;;;;;;;6.67;6.67;;;;;14.69;73.18;101167.41;5019733;28;45433;-57
2022/10/05 05:00:12;;;;;;;;;8.33;6.00;;;;;14.66;72.89;101174.78;5016817;28;45453;-62
2022/10/05 05:02:56;;;;;;;;;6.00;5.00;;;;;14.61;73.28;101171.56;5020118;28;45581;-57
2022/10/05 05:05:30;;;;;;;;;8.67;6.00;;;;;14.57;73.00;101165.53;5029979;28;46389;-57
2022/10/05 05:08:33;;;;;;;;;7.33;5.67;;;;;14.51;73.35;101157.03;5035363;28;45379;-58
2022/10/05 05:11:23;;;;;;;;;6.67;5.00;;;;;14.52;73.37;101166.78;5032067;28;45541;-58
2022/10/05 05:14:06;;;;;;;;;3.67;3.67;;;;;14.47;74.20;101163.56;5018073;28;45322;-58
2022/10/05 05:16:43;;;;;;;;;8.00;6.00;;;;;14.42;73.42;101153.09;5019321;28;45989;-56
2022/10/05 05:19:14;;;;;;;;;7.67;6.67;;;;;14.40;74.37;101158.53;5036096;28;45575;-56
2022/10/05 05:21:52;;;;;;;;;8.33;5.67;;;;;14.37;73.93;101157.88;5023425;28;45386;-58
2022/10/05 05:24:47;;;;;;;;;8.67;5.33;;;;;14.34;74.04;101156.25;5014804;28;45355;-56
2022/10/05 05:27:34;;;;;;;;;5.67;5.67;;;;;14.31;74.68;101152.91;5026355;28;45544;-61
2022/10/05 05:30:13;;;;;;;;;7.00;5.00;;;;;14.28;74.15;101151.28;5019357;28;45415;-57
2022/10/05 05:33:02;;;;;;;;;8.00;6.00;;;;;14.25;74.89;101146.13;5014919;28;45565;-56
2022/10/05 05:35:55;;;;;;;;;5.00;5.00;;;;;14.20;74.88;101150.06;5031671;28;45540;-59
2022/10/05 05:38:33;;;;;;;;;6.67;4.33;;;;;14.18;75.24;101150.13;5032726;28;45956;-57
2022/10/05 05:41:16;;;;;;;;;5.67;5.67;;;;;14.14;75.19;101146.78;5040199;28;45509;-56
2022/10/05 05:43:52;;;;;;;;;5.67;5.67;;;;;14.13;75.30;101138.84;5030477;28;45614;-60
2022/10/05 05:46:25;;;;;;;;;4.33;4.33;;;;;14.10;75.19;101144.41;5035758;28;45473;-58
2022/10/05 05:48:53;;;;;;;;;8.00;5.67;;;;;14.08;75.70;101149.00;5024806;28;46621;-66
2022/10/05 05:51:36;;;;;;;;;9.33;7.00;;;;;14.06;75.30;101133.06;5035037;28;45489;-62
2022/10/05 05:54:32;;;;;;;;;4.33;4.33;;;;;14.03;75.35;101138.56;5028501;28;45526;-66
2022/10/05 05:57:09;;;;;;;;;5.00;5.00;;;;;13.98;75.47;101135.31;5027308;28;45404;-60
2022/10/05 05:59:46;;;;;;;;;8.67;6.67;;;;;13.98;75.49;101140.69;5025784;28;46326;-59
2022/10/05 06:02:18;;;;;;;;;12.00;5.33;;;;;13.94;75.61;101139.16;5019543;28;45328;-54
2022/10/05 06:04:51;;;;;;;;;4.33;4.33;;;;;13.94;75.49;101147.16;5012703;28;45819;-60
2022/10/05 06:07:23;;;;;;;;;8.67;6.67;;;;;13.92;75.54;101138.34;5014344;28;45521;-61
2022/10/05 06:10:16;;;;;;;;;6.33;6.33;;;;;13.94;75.28;101146.31;5015491;28;47083;-56
2022/10/05 06:12:46;;;;;;;;;5.00;5.00;;;;;13.92;75.76;101135.69;5016065;28;45410;-54
2022/10/05 06:15:33;;;;;;;;;8.00;8.00;;;;;13.93;75.41;101136.53;5014000;28;45632;-58
2022/10/05 06:18:08;;;;;;;;;5.00;5.00;;;;;13.92;75.47;101141.03;5015393;28;45192;-58
2022/10/05 06:20:52;;;;;;;;;8.00;7.33;;;;;13.86;75.64;101130.72;5033007;28;45452;-57
2022/10/05 06:23:24;;;;;;;;;8.00;8.00;;;;;13.88;76.22;101142.19;5019428;28;45478;-58
2022/10/05 06:26:28;;;;;;;;;7.00;5.00;;;;;13.88;75.71;101140.38;5016971;28;45288;-65
2022/10/05 06:29:00;;;;;;;;;9.00;7.00;;;;;13.83;75.52;101142.47;5016200;28;45312;-59
2022/10/05 06:32:01;;;;;;;;;8.33;7.33;;;;;13.85;76.13;101139.69;5022844;28;46479;-59
2022/10/05 06:34:47;;;;;;;;;9.00;8.00;;;;;13.85;75.60;101150.41;5035233;28;45398;-58
2022/10/05 06:37:26;;;;;;;;;5.00;5.00;;;;;13.86;75.92;101147.63;5037032;28;45500;-64
2022/10/05 06:40:22;;;;;;;;;7.00;7.00;;;;;13.80;75.45;101131.97;5035195;28;45374;-58
2022/10/05 06:43:04;;;;;;;;;8.33;5.00;;;;;13.87;75.45;101137.78;5036181;28;45416;-59
2022/10/05 06:45:54;;;;;;;;;8.67;7.67;;;;;13.91;75.65;101149.16;5035175;28;45816;-62
2022/10/05 06:49:02;;;;;;;;;10.33;8.00;;;;;13.92;75.24;101151.72;5036538;28;45333;-62
2022/10/05 06:51:46;;;;;;;;;6.00;6.00;;;;;13.91;75.91;101133.97;5036509;28;45494;-62
2022/10/05 06:54:42;;;;;;;;;7.00;7.00;;;;;13.92;75.53;101141.03;5035122;28;45503;-60
2022/10/05 06:57:22;;;;;;;;;7.33;7.33;;;;;13.96;75.50;101137.25;5036603;28;45438;-63
2022/10/05 07:00:03;;;;;;;;;10.67;8.00;;;;;13.99;75.48;101141.53;5022789;28;45427;-64
2022/10/05 07:02:50;;;;;;;;;8.00;8.00;;;;;13.99;75.47;101145.06;5032126;28;45530;-59
2022/10/05 07:05:15;;;;;;;;;9.00;8.67;;;;;14.01;76.07;101140.47;5016145;28;46228;-62
2022/10/05 07:07:50;;;;;;;;;7.33;5.33;;;;;14.02;75.87;101135.97;5016117;28;45329;-59
2022/10/05 07:10:33;;;;;;;;;10.33;8.00;;;;;14.02;76.25;101142.19;5016324;28;45482;-62
2022/10/05 07:13:17;;;;;;;;;11.33;9.00;;;;;14.09;75.71;101142.69;5016448;28;45460;-62
2022/10/05 07:16:16;;;;;;;;;12.33;11.33;;;;;14.12;75.67;101146.03;5016464;28;46370;-58
2022/10/05 07:19:06;;;;;;;;;11.67;9.67;;;;;14.14;76.58;101141.44;5015138;28;45372;-65
2022/10/05 07:22:13;;;;;;;;;11.00;10.00;;;;;14.20;76.09;101158.09;5016061;28;45407;-62
2022/10/05 07:24:57;;;;;;;;;12.67;10.33;;;;;14.22;75.90;101156.16;5015154;28;45633;-67
2022/10/05 07:27:26;;;;;;;;;14.33;11.33;;;;;14.26;76.07;101160.34;5016054;28;45634;-65
2022/10/05 07:30:09;;;;;;;;;11.33;10.00;;;;;14.27;76.28;101168.28;5015180;28;45205;-64
2022/10/05 07:32:59;;;;;;;;;13.00;10.00;;;;;14.33;76.05;101164.38;5016912;28;45399;-60
2022/10/05 07:38:39;;;;;;;;;10.33;9.33;;;;;14.41;76.13;101173.63;5016755;28;45773;-58
2022/10/05 07:41:10;;;;;;;;;12.00;12.00;;;;;14.35;75.67;101149.09;5015355;28;45332;-63
2022/10/05 07:43:49;;;;;;;;;11.33;11.33;;;;;14.39;76.40;101161.31;5016526;28;45344;-67
2022/10/05 07:46:26;;;;;;;;;10.67;10.67;;;;;14.51;76.14;101171.28;5020736;28;45442;-64
2022/10/05 07:49:08;;;;;;;;;10.00;10.00;;;;;14.53;75.97;101174.72;5024063;28;46855;-61
2022/10/05 07:51:39;;;;;;;;;15.33;13.00;;;;;14.58;75.49;101183.31;5032605;28;45378;-58
2022/10/05 07:54:26;;;;;;;;;12.00;11.67;;;;;14.62;75.18;101184.84;5030011;28;45476;-59
2022/10/05 07:57:02;;;;;;;;;14.67;12.00;;;;;14.67;75.67;101177.38;5015761;28;45449;-62
2022/10/05 07:59:43;;;;;;;;;12.00;12.00;;;;;14.68;75.32;101173.72;5001643;28;46207;-61
2022/10/05 08:02:32;;;;;;;;;11.67;10.33;;;;;14.79;74.96;101190.94;4995640;28;45508;-60
2022/10/05 08:05:20;;;;;;;;;10.67;10.67;;;;;14.85;75.00;101186.06;4995801;28;45342;-56
2022/10/05 08:07:51;;;;;;;;;7.67;7.00;;;;;14.94;74.58;101189.94;5033323;28;45692;-56
2022/10/05 08:10:44;;;;;;;;;11.00;9.33;;;;;15.00;74.73;101184.22;5019813;28;45446;-56
2022/10/05 08:13:28;;;;;;;;;10.33;9.33;;;;;15.09;74.71;101185.41;5006575;28;45464;-60
2022/10/05 08:16:01;;;;;;;;;9.33;9.00;;;;;15.22;74.20;101183.63;5015126;28;45756;-57
2022/10/05 08:18:53;;;;;;;;;11.33;9.33;;;;;15.30;73.58;101174.13;5011839;28;45477;-57
2022/10/05 08:21:26;;;;;;;;;9.33;7.00;;;;;15.39;73.61;101177.19;5017947;28;46341;-62
2022/10/05 08:24:02;;;;;;;;;6.33;5.00;;;;;15.49;73.65;101178.25;5014300;28;45403;-60
2022/10/05 08:26:46;;;;;;;;;6.67;6.67;;;;;15.55;73.36;101164.47;5011281;28;45309;-59
2022/10/05 08:29:25;;;;;;;;;11.00;5.67;;;;;15.71;73.18;101175.88;5018206;28;45316;-56
2022/10/05 08:31:57;;;;;;;;;8.00;6.67;;;;;15.87;72.37;101186.41;5021415;28;45601;-60
2022/10/05 08:34:26;;;;;;;;;6.00;6.00;;;;;15.99;72.45;101171.28;5033057;28;45358;-58
2022/10/05 08:37:05;;;;;;;;;9.33;3.33;;;;;16.16;72.21;101181.72;5030301;28;45469;-64
2022/10/05 08:39:47;;;;;;;;;3.00;3.00;;;;;16.24;71.71;101168.63;5034148;28;45396;-62
2022/10/05 08:42:34;;;;;;;;;3.33;3.33;;;;;16.39;71.39;101183.63;5018731;28;45475;-66
2022/10/05 08:45:18;;;;;;;;;4.00;4.00;;;;;16.45;71.14;101177.84;5024342;28;45519;-68
2022/10/05 08:47:56;;;;;;;;;5.00;5.00;;;;;16.53;71.01;101185.34;5020886;28;45430;-67
2022/10/05 08:50:58;;;;;;;;;7.00;6.00;;;;;16.65;71.03;101183.59;5018336;28;45489;-63
2022/10/05 08:53:23;;;;;;;;;5.00;4.00;;;;;16.70;70.85;101173.44;5029181;28;45386;-62
2022/10/05 08:56:15;;;;;;;;;5.00;5.00;;;;;16.77;70.85;101182.75;5037636;28;45326;-61
2022/10/05 08:59:03;;;;;;;;;5.67;5.00;;;;;16.82;70.04;101185.97;5018917;28;45335;-57
2022/10/05 09:01:54;;;;;;;;;5.00;5.00;;;;;16.87;69.86;101199.06;5018177;28;45296;-59
2022/10/05 09:04:38;;;;;;;;;3.00;3.00;;;;;16.90;69.73;101193.47;5017810;28;45353;-58
2022/10/05 09:07:41;;;;;;;;;5.67;4.00;;;;;16.97;70.05;101200.13;5023819;28;45393;-56
2022/10/05 09:10:12;;;;;;;;;6.00;3.33;;;;;17.00;69.71;101202.56;5022360;27;45644;-62
2022/10/05 09:12:53;;;;;;;;;6.67;5.67;;;;;17.06;69.30;101192.25;5033478;28;45590;-59
2022/10/05 09:15:34;;;;;;;;;4.33;4.33;;;;;17.12;69.29;101192.75;5017490;28;46391;-61
2022/10/05 09:18:22;;;;;;;;;5.67;5.00;;;;;17.22;68.83;101196.47;5017113;28;45449;-62
2022/10/05 09:20:52;;;;;;;;;7.33;6.33;;;;;17.30;69.00;101188.69;5007442;28;45384;-58
2022/10/05 09:23:38;;;;;;;;;6.00;5.00;;;;;17.46;68.22;101177.66;5017794;28;45386;-58
2022/10/05 09:26:43;;;;;;;;;5.67;5.67;;;;;17.58;67.72;101195.56;5016327;28;46174;-57
2022/10/05 09:29:20;;;;;;;;;3.33;3.33;;;;;17.66;67.50;101193.97;5004470;28;45409;-65
2022/10/05 09:31:58;;;;;;;;;6.33;6.33;;;;;17.72;66.63;101197.22;5009259;28;45510;-67
2022/10/05 09:35:08;;;;;;;;;4.00;4.00;;;;;17.80;66.22;101184.88;5017901;28;45229;-64
2022/10/05 09:37:52;;;;;;;;;8.00;5.00;;;;;17.79;65.92;101198.47;5016955;28;45810;-70
2022/10/05 09:40:29;;;;;;;;;4.33;4.33;;;;;17.79;66.23;101201.16;5017435;28;45423;-63
2022/10/05 09:43:10;;;;;;;;;4.33;4.33;;;;;17.82;65.33;101203.59;5016687;28;45518;-63
2022/10/05 09:46:03;;;;;;;;;3.67;3.67;;;;;17.82;65.58;101193.69;5029512;28;45594;-62
2022/10/05 09:48:44;;;;;;;;;5.00;5.00;;;;;17.93;64.99;101200.94;5006303;28;46049;-66
2022/10/05 09:51:29;;;;;;;;;4.33;4.33;;;;;17.91;65.45;101192.13;5015834;28;45445;-61
2022/10/05 09:54:15;;;;;;;;;5.00;4.00;;;;;17.93;65.31;101195.56;5017452;28;45355;-60
2022/10/05 09:56:50;;;;;;;;;3.67;3.67;;;;;17.95;64.81;101199.84;5016474;28;45411;-69
2022/10/05 09:59:34;;;;;;;;;5.33;5.33;;;;;18.01;64.14;101182.38;5017122;28;46322;-68
2022/10/05 10:02:03;;;;;;;;;6.67;5.00;;;;;18.04;63.91;101198.28;4999779;28;45462;-67
2022/10/05 10:04:37;;;;;;;;;6.00;6.00;;;;;18.08;63.00;101194.38;4998247;28;45743;-66
2022/10/05 10:07:14;;;;;;;;;3.00;3.00;;;;;18.05;63.04;101188.38;5017078;28;45362;-66
2022/10/05 10:10:01;;;;;;;;;5.67;3.33;;;;;18.06;63.22;101188.25;5015375;28;46265;-68
2022/10/05 10:12:45;;;;;;;;;8.67;5.00;;;;;18.07;62.68;101208.81;4996872;28;45510;-65
2022/10/05 10:15:25;;;;;;;;;6.33;5.00;;;;;18.11;62.89;101196.84;4997374;28;45751;-67
2022/10/05 10:18:09;;;;;;;;;6.33;5.00;;;;;18.23;62.61;101187.81;5003941;28;45593;-62
2022/10/05 10:20:46;;;;;;;;;4.33;4.33;;;;;18.21;63.48;101189.75;5016182;28;45445;-67
2022/10/05 10:23:33;;;;;;;;;4.00;4.00;;;;;18.21;62.11;101187.03;5030329;28;45481;-62
2022/10/05 10:26:15;;;;;;;;;3.00;3.00;;;;;18.27;61.76;101191.97;5036649;28;45404;-58
2022/10/05 10:28:59;;;;;;;;;5.00;4.00;;;;;18.35;60.99;101180.56;5036574;28;45354;-66
2022/10/05 10:31:43;;;;;;;;;3.33;2.00;;;;;18.34;60.27;101186.94;5037199;28;45417;-61
2022/10/05 10:34:45;;;;;;;;;1.33;1.33;;;;;18.30;60.53;101188.16;5032259;28;45522;-61
2022/10/05 10:37:36;;;;;;;;;6.33;3.67;;;;;18.34;60.51;101175.31;5002149;28;45829;-59
2022/10/05 10:40:15;;;;;;;;;4.33;3.00;;;;;18.33;60.51;101193.31;5016481;28;45595;-61
2022/10/05 10:43:21;;;;;;;;;5.67;4.00;;;;;18.41;60.67;101181.94;5016120;28;45385;-58
2022/10/05 10:46:08;;;;;;;;;4.33;3.67;;;;;18.43;61.06;101167.38;4996907;28;45454;-59
2022/10/05 10:49:38;;;;;;;;;3.67;3.67;;;;;18.44;59.91;101165.53;4996670;28;45490;-62
2022/10/05 10:52:17;;;;;;;;;2.33;2.33;;;;;18.49;59.95;101161.50;4956673;28;45828;-62
2022/10/05 10:55:06;;;;;;;;;3.00;3.00;;;;;18.61;59.45;101170.41;4997586;28;46359;-64
2022/10/05 10:57:40;;;;;;;;;5.00;2.00;;;;;18.73;58.60;101153.28;5025844;28;45471;-61
2022/10/05 11:00:27;;;;;;;;;2.67;2.67;;;;;18.82;59.59;101149.84;5012631;28;45478;-56
2022/10/05 11:02:55;;;;;;;;;4.00;3.00;;;;;18.96;58.65;101153.25;5016786;28;45312;-57
2022/10/05 11:06:09;;;;;;;;;5.00;3.00;;;;;19.12;57.83;101148.28;5015974;28;46182;-58
2022/10/05 11:08:45;;;;;;;;;3.00;3.00;;;;;19.27;57.93;101146.16;5011005;28;45356;-54
2022/10/05 11:11:49;;;;;;;;;2.00;2.00;;;;;19.30;56.84;101127.03;5012167;28;45193;-57
2022/10/05 11:14:34;;;;;;;;;3.00;3.00;;;;;19.35;56.79;101122.97;5030715;28;45605;-61
2022/10/05 11:17:08;;;;;;;;;2.00;2.00;;;;;19.47;56.50;101121.06;4998041;28;45378;-63
2022/10/05 11:19:55;;;;;;;;;2.67;2.67;;;;;19.48;56.64;101117.38;5000034;28;45459;-55
2022/10/05 11:22:42;;;;;;;;;4.00;4.00;;;;;19.62;56.72;101105.44;5026131;28;45485;-55
2022/10/05 11:25:49;;;;;;;;;4.50;3.00;;;;;19.71;55.67;101096.56;5013359;28;45589;-56
2022/10/05 11:28:53;;;;;;;;;5.00;3.00;;;;;19.80;55.88;101111.13;5008210;28;46096;-60
2022/10/05 11:31:40;;;;;;;;;3.33;3.33;;;;;19.91;56.75;101101.06;4996124;28;45407;-55
2022/10/05 11:34:24;;;;;;;;;4.33;4.00;;;;;19.94;55.82;101091.88;5014475;28;45473;-61
2022/10/05 11:37:11;;;;;;;;;1.00;1.00;;;;;19.95;55.86;101085.47;5003969;28;45472;-53
2022/10/05 11:40:22;;;;;;;;;1.33;1.33;;;;;19.98;55.17;101093.31;5015630;28;45596;-61
2022/10/05 11:43:12;;;;;;;;;2.75;2.75;;;;;20.19;55.73;101091.44;5006772;28;45851;-61
2022/10/05 11:45:54;;;;;;;;;3.00;3.00;;;;;20.39;54.73;101086.09;4996014;28;45263;-59
2022/10/05 11:49:03;;;;;;;;;4.50;2.00;;;;;20.46;54.62;101087.28;5012336;28;45491;-62
2022/10/05 11:52:05;;;;;;;;;6.67;5.33;;;;;20.60;54.36;101095.84;5034646;28;46087;-60
2022/10/05 11:55:04;;;;;;;;;5.75;3.00;;;;;20.71;53.89;101107.56;5020890;28;45910;-60
2022/10/05 11:57:48;;;;;;;;;4.00;2.25;;;;;20.87;54.93;101092.50;5033128;28;45745;-56
2022/10/05 12:00:20;;;;;;;;;3.00;3.00;;;;;21.12;54.08;101090.25;5017655;28;45521;-60
2022/10/05 12:03:02;;;;;;;;;2.33;2.33;;;;;21.18;53.33;101098.63;5024095;28;45831;-60
2022/10/05 12:05:55;;;;;;;;;4.00;2.50;;;;;21.33;52.86;101085.56;5015683;28;45522;-61
2022/10/05 12:08:27;;;;;;;;;1.25;1.25;;;;;21.53;53.51;101078.28;5017546;28;45375;-57
2022/10/05 12:11:07;;;;;;;;;3.50;3.00;;;;;21.63;52.28;101087.25;5023170;28;45574;-59
2022/10/05 12:13:37;;;;;;;;;2.00;2.00;;;;;21.60;52.97;101073.97;5003450;28;45487;-58
2022/10/05 12:16:43;;;;;;;;;5.75;4.00;;;;;21.72;53.19;101078.22;5017265;28;45377;-54
2022/10/05 12:19:32;;;;;;;;;3.75;3.75;;;;;21.86;52.18;101078.75;5025012;28;45554;-60
2022/10/05 12:22:14;;;;;;;;;3.00;3.00;;;;;21.90;52.51;101069.38;5038495;27;45395;-58
2022/10/05 12:25:20;;;;;;;;;3.00;3.00;;;;;21.92;52.64;101072.78;5035884;28;45414;-51
2022/10/05 12:27:50;;;;;;;;;3.25;3.25;;;;;22.15;53.20;101079.56;5035874;28;45492;-51
2022/10/05 12:30:26;;;;;;;;;4.00;3.00;;;;;22.16;52.50;101070.44;5035638;28;45446;-59
2022/10/05 12:32:57;;;;;;;;;5.50;5.00;;;;;22.31;52.08;101085.19;5038857;28;45375;-56